The Meadows, Iowa
Current Conditions -  °F | °C
As of 6:15 PM on Saturday 25 Oct 2014 (Local Time) from KPRO Reporting Station
Clear Clear  
Wind Chill: 64°   Ceiling: Unl
Heat Index: 64°   Visibility: 10mi
Dew Point: 35°   Wind: 5mph
Humidity: 35%   Direction: 20°NNE
Pressure: 30.06"   Gusts: NA
Location:  41.8164°N, 93.8864°W
Report Text: KPRO 252315Z AUTO 02004KT 10SM CLR 18/02 A3006 RMK AO2 T01750017
Loading
Personal Weather Stations






























Interactive Weather Map
Tropical Storm Tracking
New forecast layout! Learn more

10-Day Weather Forecast

Advertisements
Track Severe Weather on mobile